sensor_id;sensor_type;location;lat;lon;timestamp;pressure;altitude;pressure_sealevel;temperature;humidity
84511;BME280;74730;43.858;18.424;2024-02-21T00:00:35;96235.16;;;5.66;65.84
84511;BME280;74730;43.858;18.424;2024-02-21T00:03:00;96228.00;;;5.69;66.23
84511;BME280;74730;43.858;18.424;2024-02-21T00:05:27;96231.47;;;5.78;65.84
84511;BME280;74730;43.858;18.424;2024-02-21T00:07:53;96224.16;;;5.83;66.67
84511;BME280;74730;43.858;18.424;2024-02-21T00:10:18;96225.09;;;5.82;65.76
84511;BME280;74730;43.858;18.424;2024-02-21T00:12:44;96219.97;;;5.82;66.12
84511;BME280;74730;43.858;18.424;2024-02-21T00:15:09;96208.63;;;5.85;66.44
84511;BME280;74730;43.858;18.424;2024-02-21T00:17:35;96207.56;;;5.87;66.03
84511;BME280;74730;43.858;18.424;2024-02-21T00:20:00;96206.63;;;5.88;66.29
84511;BME280;74730;43.858;18.424;2024-02-21T00:22:26;96205.56;;;5.81;66.21
84511;BME280;74730;43.858;18.424;2024-02-21T00:24:54;96214.19;;;5.80;65.45
84511;BME280;74730;43.858;18.424;2024-02-21T00:27:19;96210.31;;;5.76;65.33
84511;BME280;74730;43.858;18.424;2024-02-21T00:29:45;96215.44;;;5.76;65.20
84511;BME280;74730;43.858;18.424;2024-02-21T00:32:10;96214.50;;;5.77;65.54
84511;BME280;74730;43.858;18.424;2024-02-21T00:34:36;96216.88;;;5.78;65.59
84511;BME280;74730;43.858;18.424;2024-02-21T00:37:02;96214.19;;;5.80;65.24
84511;BME280;74730;43.858;18.424;2024-02-21T00:39:27;96216.75;;;5.80;66.10
84511;BME280;74730;43.858;18.424;2024-02-21T00:41:53;96203.25;;;5.78;65.97
84511;BME280;74730;43.858;18.424;2024-02-21T00:44:18;96202.84;;;5.82;65.42
84511;BME280;74730;43.858;18.424;2024-02-21T00:46:44;96197.69;;;5.92;65.89
84511;BME280;74730;43.858;18.424;2024-02-21T00:49:09;96201.50;;;5.88;65.79
84511;BME280;74730;43.858;18.424;2024-02-21T00:51:35;96190.19;;;5.81;65.41
84511;BME280;74730;43.858;18.424;2024-02-21T00:54:00;96191.13;;;5.80;65.68
84511;BME280;74730;43.858;18.424;2024-02-21T00:56:26;96193.38;;;5.83;65.56
84511;BME280;74730;43.858;18.424;2024-02-21T00:58:52;96192.88;;;5.79;66.34
84511;BME280;74730;43.858;18.424;2024-02-21T01:01:25;96202.63;;;5.76;65.43
84511;BME280;74730;43.858;18.424;2024-02-21T01:03:50;96193.59;;;5.72;65.98
84511;BME280;74730;43.858;18.424;2024-02-21T01:06:19;96195.88;;;5.75;66.64
84511;BME280;74730;43.858;18.424;2024-02-21T01:08:46;96189.50;;;5.79;65.68
84511;BME280;74730;43.858;18.424;2024-02-21T01:11:12;96188.84;;;5.77;66.18
84511;BME280;74730;43.858;18.424;2024-02-21T01:13:38;96180.09;;;5.70;65.99
84511;BME280;74730;43.858;18.424;2024-02-21T01:16:03;96178.66;;;5.67;66.17
84511;BME280;74730;43.858;18.424;2024-02-21T01:18:29;96179.97;;;5.71;65.77
84511;BME280;74730;43.858;18.424;2024-02-21T01:20:55;96177.53;;;5.70;66.75
84511;BME280;74730;43.858;18.424;2024-02-21T01:23:20;96176.22;;;5.66;66.56
84511;BME280;74730;43.858;18.424;2024-02-21T01:25:46;96175.84;;;5.61;67.08
84511;BME280;74730;43.858;18.424;2024-02-21T01:28:11;96172.75;;;5.57;66.77
84511;BME280;74730;43.858;18.424;2024-02-21T01:30:37;96176.50;;;5.63;66.38
84511;BME280;74730;43.858;18.424;2024-02-21T01:33:03;96182.16;;;5.66;66.79
84511;BME280;74730;43.858;18.424;2024-02-21T01:35:29;96175.94;;;5.69;67.21
84511;BME280;74730;43.858;18.424;2024-02-21T01:37:54;96168.25;;;5.69;67.20
84511;BME280;74730;43.858;18.424;2024-02-21T01:40:20;96165.97;;;5.66;66.71
84511;BME280;74730;43.858;18.424;2024-02-21T01:42:45;96158.47;;;5.55;66.52
84511;BME280;74730;43.858;18.424;2024-02-21T01:45:13;96149.06;;;5.46;67.48
84511;BME280;74730;43.858;18.424;2024-02-21T01:47:38;96152.88;;;5.42;67.60
84511;BME280;74730;43.858;18.424;2024-02-21T01:50:04;96157.19;;;5.41;67.41
84511;BME280;74730;43.858;18.424;2024-02-21T01:52:30;96145.47;;;5.39;67.75
84511;BME280;74730;43.858;18.424;2024-02-21T01:54:57;96151.53;;;5.38;68.35
84511;BME280;74730;43.858;18.424;2024-02-21T01:57:23;96148.59;;;5.32;67.79
84511;BME280;74730;43.858;18.424;2024-02-21T01:59:49;96146.44;;;5.28;67.80
84511;BME280;74730;43.858;18.424;2024-02-21T02:02:16;96146.84;;;5.33;67.98
84511;BME280;74730;43.858;18.424;2024-02-21T02:04:43;96152.78;;;5.33;67.91
84511;BME280;74730;43.858;18.424;2024-02-21T02:07:10;96156.28;;;5.32;67.85
84511;BME280;74730;43.858;18.424;2024-02-21T02:09:36;96156.28;;;5.32;67.57
84511;BME280;74730;43.858;18.424;2024-02-21T02:12:02;96154.69;;;5.31;68.03
84511;BME280;74730;43.858;18.424;2024-02-21T02:14:27;96153.72;;;5.32;67.42
84511;BME280;74730;43.858;18.424;2024-02-21T02:16:53;96145.72;;;5.45;67.72
84511;BME280;74730;43.858;18.424;2024-02-21T02:19:18;96154.06;;;5.47;67.09
84511;BME280;74730;43.858;18.424;2024-02-21T02:21:54;96152.31;;;5.48;67.84
84511;BME280;74730;43.858;18.424;2024-02-21T02:24:23;96167.28;;;5.43;67.29
84511;BME280;74730;43.858;18.424;2024-02-21T02:26:49;96160.41;;;5.43;67.62
84511;BME280;74730;43.858;18.424;2024-02-21T02:29:15;96166.06;;;5.47;67.36
84511;BME280;74730;43.858;18.424;2024-02-21T02:31:42;96172.28;;;5.44;67.36
84511;BME280;74730;43.858;18.424;2024-02-21T02:34:07;96161.88;;;5.46;67.22
84511;BME280;74730;43.858;18.424;2024-02-21T02:36:33;96159.44;;;5.54;67.14
84511;BME280;74730;43.858;18.424;2024-02-21T02:38:59;96162.00;;;5.54;67.54
84511;BME280;74730;43.858;18.424;2024-02-21T02:41:25;96155.91;;;5.55;67.69
84511;BME280;74730;43.858;18.424;2024-02-21T02:43:50;96163.31;;;5.58;68.10
84511;BME280;74730;43.858;18.424;2024-02-21T02:46:16;96169.91;;;5.60;66.82
84511;BME280;74730;43.858;18.424;2024-02-21T02:48:41;96161.41;;;5.60;66.71
84511;BME280;74730;43.858;18.424;2024-02-21T02:51:07;96159.66;;;5.60;67.10
84511;BME280;74730;43.858;18.424;2024-02-21T02:53:32;96166.41;;;5.61;67.46
84511;BME280;74730;43.858;18.424;2024-02-21T02:55:58;96171.41;;;5.63;67.93
84511;BME280;74730;43.858;18.424;2024-02-21T02:58:23;96160.84;;;5.66;67.03
84511;BME280;74730;43.858;18.424;2024-02-21T03:00:49;96170.91;;;5.50;67.84
84511;BME280;74730;43.858;18.424;2024-02-21T03:03:15;96169.31;;;5.49;67.49
84511;BME280;74730;43.858;18.424;2024-02-21T03:05:40;96168.91;;;5.44;67.60
84511;BME280;74730;43.858;18.424;2024-02-21T03:08:06;96173.66;;;5.39;66.82
84511;BME280;74730;43.858;18.424;2024-02-21T03:10:33;96172.56;;;5.41;66.94
84511;BME280;74730;43.858;18.424;2024-02-21T03:12:59;96173.34;;;5.42;67.30
84511;BME280;74730;43.858;18.424;2024-02-21T03:15:24;96181.72;;;5.44;67.83
84511;BME280;74730;43.858;18.424;2024-02-21T03:17:50;96178.75;;;5.48;67.42
84511;BME280;74730;43.858;18.424;2024-02-21T03:20:15;96182.97;;;5.40;67.65
84511;BME280;74730;43.858;18.424;2024-02-21T03:22:41;96196.09;;;5.27;67.90
84511;BME280;74730;43.858;18.424;2024-02-21T03:25:07;96192.56;;;5.28;68.00
84511;BME280;74730;43.858;18.424;2024-02-21T03:27:33;96206.84;;;5.30;68.54
84511;BME280;74730;43.858;18.424;2024-02-21T03:29:59;96205.91;;;5.31;68.38
84511;BME280;74730;43.858;18.424;2024-02-21T03:32:24;96198.75;;;5.35;67.45
84511;BME280;74730;43.858;18.424;2024-02-21T03:34:50;96208.16;;;5.44;67.64
84511;BME280;74730;43.858;18.424;2024-02-21T03:37:15;96216.91;;;5.42;68.29
84511;BME280;74730;43.858;18.424;2024-02-21T03:39:41;96217.59;;;5.44;67.71
84511;BME280;74730;43.858;18.424;2024-02-21T03:42:07;96211.38;;;5.46;67.97
84511;BME280;74730;43.858;18.424;2024-02-21T03:44:33;96204.97;;;5.60;68.38
84511;BME280;74730;43.858;18.424;2024-02-21T03:46:59;96201.44;;;5.70;67.73
84511;BME280;74730;43.858;18.424;2024-02-21T03:49:25;96200.47;;;5.71;67.86
84511;BME280;74730;43.858;18.424;2024-02-21T03:51:51;96204.53;;;5.64;68.79
84511;BME280;74730;43.858;18.424;2024-02-21T03:54:16;96207.91;;;5.65;68.60
84511;BME280;74730;43.858;18.424;2024-02-21T03:56:42;96208.72;;;5.65;68.50
84511;BME280;74730;43.858;18.424;2024-02-21T03:59:07;96211.16;;;5.67;68.26
84511;BME280;74730;43.858;18.424;2024-02-21T04:01:36;96212.91;;;5.66;68.35
84511;BME280;74730;43.858;18.424;2024-02-21T04:04:02;96204.94;;;5.69;67.99
84511;BME280;74730;43.858;18.424;2024-02-21T04:06:28;96212.34;;;5.72;67.92
84511;BME280;74730;43.858;18.424;2024-02-21T04:08:54;96211.53;;;5.72;68.15
84511;BME280;74730;43.858;18.424;2024-02-21T04:11:19;96207.00;;;5.56;68.28
84511;BME280;74730;43.858;18.424;2024-02-21T04:13:45;96221.88;;;5.53;69.36
84511;BME280;74730;43.858;18.424;2024-02-21T04:16:14;96225.16;;;5.45;69.81
84511;BME280;74730;43.858;18.424;2024-02-21T04:18:39;96230.13;;;5.37;70.26
84511;BME280;74730;43.858;18.424;2024-02-21T04:21:05;96224.38;;;5.35;70.79
84511;BME280;74730;43.858;18.424;2024-02-21T04:23:30;96227.06;;;5.33;70.95
84511;BME280;74730;43.858;18.424;2024-02-21T04:25:56;96228.97;;;5.31;71.35
84511;BME280;74730;43.858;18.424;2024-02-21T04:28:21;96229.94;;;5.21;71.74
84511;BME280;74730;43.858;18.424;2024-02-21T04:30:47;96224.41;;;5.16;72.33
84511;BME280;74730;43.858;18.424;2024-02-21T04:33:12;96221.47;;;5.11;72.07
84511;BME280;74730;43.858;18.424;2024-02-21T04:35:38;96220.66;;;5.10;72.96
84511;BME280;74730;43.858;18.424;2024-02-21T04:38:04;96220.00;;;5.08;72.50
84511;BME280;74730;43.858;18.424;2024-02-21T04:40:30;96223.75;;;5.04;73.04
84511;BME280;74730;43.858;18.424;2024-02-21T04:42:57;96220.25;;;5.05;73.49
84511;BME280;74730;43.858;18.424;2024-02-21T04:45:22;96227.00;;;5.06;73.51
84511;BME280;74730;43.858;18.424;2024-02-21T04:47:48;96222.41;;;5.10;73.46
84511;BME280;74730;43.858;18.424;2024-02-21T04:50:13;96221.03;;;5.15;72.95
84511;BME280;74730;43.858;18.424;2024-02-21T04:52:39;96224.94;;;5.19;72.64
84511;BME280;74730;43.858;18.424;2024-02-21T04:55:05;96223.16;;;5.29;72.56
84511;BME280;74730;43.858;18.424;2024-02-21T04:57:31;96228.69;;;5.34;72.21
84511;BME280;74730;43.858;18.424;2024-02-21T04:59:56;96231.25;;;5.34;72.66
84511;BME280;74730;43.858;18.424;2024-02-21T05:02:22;96226.78;;;5.36;73.06
84511;BME280;74730;43.858;18.424;2024-02-21T05:04:49;96227.03;;;5.43;73.20
84511;BME280;74730;43.858;18.424;2024-02-21T05:07:15;96227.66;;;5.55;73.14
84511;BME280;74730;43.858;18.424;2024-02-21T05:09:44;96237.53;;;5.50;73.86
84511;BME280;74730;43.858;18.424;2024-02-21T05:12:09;96232.69;;;5.37;73.03
84511;BME280;74730;43.858;18.424;2024-02-21T05:14:35;96236.91;;;5.28;73.02
84511;BME280;74730;43.858;18.424;2024-02-21T05:17:00;96236.00;;;5.20;73.91
84511;BME280;74730;43.858;18.424;2024-02-21T05:19:26;96233.00;;;5.24;73.81
84511;BME280;74730;43.858;18.424;2024-02-21T05:21:51;96233.41;;;5.29;74.06
84511;BME280;74730;43.858;18.424;2024-02-21T05:24:17;96240.16;;;5.30;74.17
84511;BME280;74730;43.858;18.424;2024-02-21T05:26:42;96235.28;;;5.27;73.80
84511;BME280;74730;43.858;18.424;2024-02-21T05:29:08;96233.28;;;5.31;73.52
84511;BME280;74730;43.858;18.424;2024-02-21T05:34:18;96240.41;;;5.27;74.21
84511;BME280;74730;43.858;18.424;2024-02-21T05:36:44;96237.72;;;5.29;74.44
84511;BME280;74730;43.858;18.424;2024-02-21T05:39:10;96242.09;;;5.46;74.48
84511;BME280;74730;43.858;18.424;2024-02-21T05:41:35;96242.88;;;5.56;74.18
84511;BME280;74730;43.858;18.424;2024-02-21T05:44:01;96239.69;;;5.54;73.78
84511;BME280;74730;43.858;18.424;2024-02-21T05:46:26;96243.31;;;5.52;74.46
84511;BME280;74730;43.858;18.424;2024-02-21T05:48:52;96238.59;;;5.47;74.07
84511;BME280;74730;43.858;18.424;2024-02-21T05:51:18;96236.97;;;5.46;74.67
84511;BME280;74730;43.858;18.424;2024-02-21T05:53:43;96240.66;;;5.44;74.17
84511;BME280;74730;43.858;18.424;2024-02-21T05:56:12;96238.38;;;5.41;74.52
84511;BME280;74730;43.858;18.424;2024-02-21T05:58:39;96239.31;;;5.40;75.10
84511;BME280;74730;43.858;18.424;2024-02-21T06:01:05;96241.59;;;5.43;75.20
84511;BME280;74730;43.858;18.424;2024-02-21T06:03:33;96245.09;;;5.42;74.25
84511;BME280;74730;43.858;18.424;2024-02-21T06:06:02;96247.09;;;5.48;74.45
84511;BME280;74730;43.858;18.424;2024-02-21T06:08:28;96257.78;;;5.43;73.62
84511;BME280;74730;43.858;18.424;2024-02-21T06:10:54;96252.38;;;5.36;74.58
84511;BME280;74730;43.858;18.424;2024-02-21T06:13:26;96254.28;;;5.34;75.03
84511;BME280;74730;43.858;18.424;2024-02-21T06:15:52;96258.59;;;5.34;74.78
84511;BME280;74730;43.858;18.424;2024-02-21T06:18:19;96264.41;;;5.36;74.31
84511;BME280;74730;43.858;18.424;2024-02-21T06:20:45;96260.22;;;5.35;75.51
84511;BME280;74730;43.858;18.424;2024-02-21T06:23:15;96272.63;;;5.40;74.68
84511;BME280;74730;43.858;18.424;2024-02-21T06:25:42;96271.81;;;5.39;75.04
84511;BME280;74730;43.858;18.424;2024-02-21T06:28:07;96279.72;;;5.46;74.92
84511;BME280;74730;43.858;18.424;2024-02-21T06:30:33;96277.59;;;5.41;74.48
84511;BME280;74730;43.858;18.424;2024-02-21T06:32:58;96275.69;;;5.43;74.37
84511;BME280;74730;43.858;18.424;2024-02-21T06:35:25;96275.97;;;5.50;74.70
84511;BME280;74730;43.858;18.424;2024-02-21T06:37:53;96276.09;;;5.48;74.08
84511;BME280;74730;43.858;18.424;2024-02-21T06:40:22;96269.03;;;5.60;73.81
84511;BME280;74730;43.858;18.424;2024-02-21T06:42:49;96276.13;;;5.75;73.98
84511;BME280;74730;43.858;18.424;2024-02-21T06:45:15;96277.41;;;5.99;73.72
84511;BME280;74730;43.858;18.424;2024-02-21T06:47:40;96272.72;;;6.21;72.32
84511;BME280;74730;43.858;18.424;2024-02-21T06:50:06;96283.28;;;6.36;71.79
84511;BME280;74730;43.858;18.424;2024-02-21T06:52:32;96288.72;;;6.51;70.48
84511;BME280;74730;43.858;18.424;2024-02-21T06:54:57;96296.34;;;6.60;69.42
84511;BME280;74730;43.858;18.424;2024-02-21T06:57:23;96300.25;;;6.64;69.76
84511;BME280;74730;43.858;18.424;2024-02-21T06:59:49;96310.75;;;6.89;68.78
84511;BME280;74730;43.858;18.424;2024-02-21T07:02:14;96306.94;;;6.93;68.69
84511;BME280;74730;43.858;18.424;2024-02-21T07:04:40;96308.25;;;6.97;68.14
84511;BME280;74730;43.858;18.424;2024-02-21T07:07:06;96312.22;;;7.09;67.45
84511;BME280;74730;43.858;18.424;2024-02-21T07:09:31;96312.22;;;7.09;68.28
84511;BME280;74730;43.858;18.424;2024-02-21T07:11:58;96308.25;;;7.15;68.25
84511;BME280;74730;43.858;18.424;2024-02-21T07:14:23;96311.81;;;7.22;67.89
84511;BME280;74730;43.858;18.424;2024-02-21T07:16:49;96313.13;;;7.26;68.05
84511;BME280;74730;43.858;18.424;2024-02-21T07:19:15;96317.69;;;7.32;67.67
84511;BME280;74730;43.858;18.424;2024-02-21T07:21:40;96317.06;;;7.38;68.16
84511;BME280;74730;43.858;18.424;2024-02-21T07:24:09;96303.94;;;7.41;67.68
84511;BME280;74730;43.858;18.424;2024-02-21T07:26:35;96298.34;;;7.45;67.10
84511;BME280;74730;43.858;18.424;2024-02-21T07:29:00;96302.13;;;7.59;67.61
84511;BME280;74730;43.858;18.424;2024-02-21T07:31:26;96296.97;;;7.85;nan
84511;BME280;74730;43.858;18.424;2024-02-21T07:33:53;96301.41;;;8.09;64.88
84511;BME280;74730;43.858;18.424;2024-02-21T07:36:29;96300.50;;;8.26;64.19
84511;BME280;74730;43.858;18.424;2024-02-21T07:38:55;96307.06;;;8.62;63.20
84511;BME280;74730;43.858;18.424;2024-02-21T07:41:21;96305.84;;;8.74;63.10
84511;BME280;74730;43.858;18.424;2024-02-21T07:43:47;96310.34;;;8.80;62.49
84511;BME280;74730;43.858;18.424;2024-02-21T07:46:14;96305.34;;;8.79;63.26
84511;BME280;74730;43.858;18.424;2024-02-21T07:48:40;96305.19;;;8.80;62.19
84511;BME280;74730;43.858;18.424;2024-02-21T07:51:05;96307.47;;;8.83;62.53
84511;BME280;74730;43.858;18.424;2024-02-21T07:53:31;96306.97;;;8.88;62.16
84511;BME280;74730;43.858;18.424;2024-02-21T07:55:57;96305.16;;;8.72;61.34
84511;BME280;74730;43.858;18.424;2024-02-21T07:58:22;96305.97;;;8.73;60.86
84511;BME280;74730;43.858;18.424;2024-02-21T08:00:48;96307.59;;;8.74;60.61
84511;BME280;74730;43.858;18.424;2024-02-21T08:03:14;96302.59;;;8.72;61.39
84511;BME280;74730;43.858;18.424;2024-02-21T08:05:41;96308.06;;;8.61;61.61
84511;BME280;74730;43.858;18.424;2024-02-21T08:08:06;96301.97;;;8.78;60.57
84511;BME280;74730;43.858;18.424;2024-02-21T08:10:33;96296.19;;;8.93;60.23
84511;BME280;74730;43.858;18.424;2024-02-21T08:12:59;96290.38;;;8.82;61.12
84511;BME280;74730;43.858;18.424;2024-02-21T08:15:25;96297.81;;;8.94;60.14
84511;BME280;74730;43.858;18.424;2024-02-21T08:17:55;96303.44;;;8.97;60.51
84511;BME280;74730;43.858;18.424;2024-02-21T08:20:25;96300.88;;;9.05;60.28
84511;BME280;74730;43.858;18.424;2024-02-21T08:22:51;96302.00;;;9.19;60.03
84511;BME280;74730;43.858;18.424;2024-02-21T08:25:17;96302.66;;;9.29;60.15
84511;BME280;74730;43.858;18.424;2024-02-21T08:27:42;96301.34;;;9.33;59.61
84511;BME280;74730;43.858;18.424;2024-02-21T08:30:08;96299.91;;;9.22;60.54
84511;BME280;74730;43.858;18.424;2024-02-21T08:32:34;96305.84;;;9.23;60.09
84511;BME280;74730;43.858;18.424;2024-02-21T08:35:01;96306.81;;;9.22;59.80
84511;BME280;74730;43.858;18.424;2024-02-21T08:37:27;96316.50;;;9.12;59.89
84511;BME280;74730;43.858;18.424;2024-02-21T08:39:53;96314.88;;;9.11;59.75
84511;BME280;74730;43.858;18.424;2024-02-21T08:42:19;96311.03;;;9.15;59.61
84511;BME280;74730;43.858;18.424;2024-02-21T08:44:45;96306.50;;;9.01;60.63
84511;BME280;74730;43.858;18.424;2024-02-21T08:47:11;96301.34;;;8.93;60.79
84511;BME280;74730;43.858;18.424;2024-02-21T08:49:37;96303.25;;;8.90;61.63
84511;BME280;74730;43.858;18.424;2024-02-21T08:52:03;96296.34;;;8.91;62.39
84511;BME280;74730;43.858;18.424;2024-02-21T08:54:29;96298.59;;;8.94;62.14
84511;BME280;74730;43.858;18.424;2024-02-21T08:56:54;96301.34;;;8.93;61.84
84511;BME280;74730;43.858;18.424;2024-02-21T08:59:20;96301.03;;;8.87;61.61
84511;BME280;74730;43.858;18.424;2024-02-21T09:01:46;96314.19;;;8.84;61.95
84511;BME280;74730;43.858;18.424;2024-02-21T09:04:12;96309.03;;;8.84;62.17
84511;BME280;74730;43.858;18.424;2024-02-21T09:06:38;96318.72;;;8.90;60.82
84511;BME280;74730;43.858;18.424;2024-02-21T09:09:08;96319.34;;;8.76;61.05
84511;BME280;74730;43.858;18.424;2024-02-21T09:11:34;96322.06;;;8.67;61.24
84511;BME280;74730;43.858;18.424;2024-02-21T09:14:00;96327.53;;;8.56;62.28
84511;BME280;74730;43.858;18.424;2024-02-21T09:16:25;96326.50;;;8.49;62.73
84511;BME280;74730;43.858;18.424;2024-02-21T09:18:51;96332.66;;;8.48;62.91
84511;BME280;74730;43.858;18.424;2024-02-21T09:21:18;96327.78;;;8.44;63.58
84511;BME280;74730;43.858;18.424;2024-02-21T09:23:44;96330.72;;;8.50;62.95
84511;BME280;74730;43.858;18.424;2024-02-21T09:26:10;96330.91;;;8.56;65.45
84511;BME280;74730;43.858;18.424;2024-02-21T09:28:39;96327.53;;;8.64;66.79
84511;BME280;74730;43.858;18.424;2024-02-21T09:31:05;96336.69;;;8.66;64.68
84511;BME280;74730;43.858;18.424;2024-02-21T09:33:30;96336.41;;;8.69;63.96
84511;BME280;74730;43.858;18.424;2024-02-21T09:35:56;96342.69;;;8.75;63.92
84511;BME280;74730;43.858;18.424;2024-02-21T09:38:21;96340.41;;;8.72;62.95
84511;BME280;74730;43.858;18.424;2024-02-21T09:40:51;96341.84;;;8.66;63.54
84511;BME280;74730;43.858;18.424;2024-02-21T09:43:19;96336.06;;;8.72;63.40
84511;BME280;74730;43.858;18.424;2024-02-21T09:45:46;96340.13;;;8.75;63.17
84511;BME280;74730;43.858;18.424;2024-02-21T09:48:49;96327.72;;;8.78;63.83
84511;BME280;74730;43.858;18.424;2024-02-21T09:51:18;96332.56;;;8.89;63.49
84511;BME280;74730;43.858;18.424;2024-02-21T09:53:45;96330.81;;;8.98;62.59
84511;BME280;74730;43.858;18.424;2024-02-21T09:56:12;96331.78;;;9.13;63.12
84511;BME280;74730;43.858;18.424;2024-02-21T09:58:39;96334.88;;;9.33;62.02
84511;BME280;74730;43.858;18.424;2024-02-21T10:01:06;96334.53;;;9.44;61.34
84511;BME280;74730;43.858;18.424;2024-02-21T10:03:32;96344.19;;;9.50;61.23
84511;BME280;74730;43.858;18.424;2024-02-21T10:05:58;96336.13;;;9.53;60.58
84511;BME280;74730;43.858;18.424;2024-02-21T10:08:26;96336.47;;;9.50;60.28
84511;BME280;74730;43.858;18.424;2024-02-21T10:10:52;96338.91;;;9.44;60.65
84511;BME280;74730;43.858;18.424;2024-02-21T10:13:26;96330.00;;;9.54;60.98
84511;BME280;74730;43.858;18.424;2024-02-21T10:16:06;96332.41;;;9.64;59.98
84511;BME280;74730;43.858;18.424;2024-02-21T10:18:35;96331.91;;;9.76;60.08
84511;BME280;74730;43.858;18.424;2024-02-21T10:21:16;96332.22;;;9.90;61.01
84511;BME280;74730;43.858;18.424;2024-02-21T10:23:49;96330.59;;;9.97;60.20
84511;BME280;74730;43.858;18.424;2024-02-21T10:26:17;96326.56;;;9.94;59.98
84511;BME280;74730;43.858;18.424;2024-02-21T10:28:44;96327.19;;;9.96;60.04
84511;BME280;74730;43.858;18.424;2024-02-21T10:31:24;96313.78;;;10.01;60.37
84511;BME280;74730;43.858;18.424;2024-02-21T10:33:58;96314.91;;;10.06;59.79
84511;BME280;74730;43.858;18.424;2024-02-21T10:36:25;96316.19;;;10.18;59.66
84511;BME280;74730;43.858;18.424;2024-02-21T10:38:51;96305.50;;;10.30;59.19
84511;BME280;74730;43.858;18.424;2024-02-21T10:41:19;96308.44;;;10.57;60.50
84511;BME280;74730;43.858;18.424;2024-02-21T10:43:49;96299.44;;;10.76;58.42
84511;BME280;74730;43.858;18.424;2024-02-21T10:46:18;96310.19;;;10.88;59.11
84511;BME280;74730;43.858;18.424;2024-02-21T10:48:45;96303.22;;;10.88;57.55
84511;BME280;74730;43.858;18.424;2024-02-21T10:51:19;96301.75;;;10.94;56.17
84511;BME280;74730;43.858;18.424;2024-02-21T10:54:08;96300.47;;;11.13;55.01
84511;BME280;74730;43.858;18.424;2024-02-21T10:56:38;96293.03;;;10.95;55.87
84511;BME280;74730;43.858;18.424;2024-02-21T10:59:06;96286.47;;;10.84;56.15
84511;BME280;74730;43.858;18.424;2024-02-21T11:01:32;96282.94;;;11.00;54.99
84511;BME280;74730;43.858;18.424;2024-02-21T11:04:08;96281.28;;;11.07;55.56
84511;BME280;74730;43.858;18.424;2024-02-21T11:06:37;96279.97;;;11.11;55.71
84511;BME280;74730;43.858;18.424;2024-02-21T11:09:05;96273.53;;;11.07;56.59
84511;BME280;74730;43.858;18.424;2024-02-21T11:11:41;96271.16;;;11.20;56.23
84511;BME280;74730;43.858;18.424;2024-02-21T11:14:19;96265.88;;;11.36;56.42
84511;BME280;74730;43.858;18.424;2024-02-21T11:16:45;96257.56;;;11.55;55.82
84511;BME280;74730;43.858;18.424;2024-02-21T11:21:50;96242.78;;;12.23;53.16
84511;BME280;74730;43.858;18.424;2024-02-21T11:24:32;96228.38;;;12.56;51.00
84511;BME280;74730;43.858;18.424;2024-02-21T11:27:33;96225.97;;;12.97;49.50
84511;BME280;74730;43.858;18.424;2024-02-21T11:30:04;96218.38;;;13.38;47.05
84511;BME280;74730;43.858;18.424;2024-02-21T11:32:31;96206.63;;;13.49;47.27
84511;BME280;74730;43.858;18.424;2024-02-21T11:35:03;96210.03;;;13.49;49.02
84511;BME280;74730;43.858;18.424;2024-02-21T11:37:35;96193.63;;;13.42;48.90
84511;BME280;74730;43.858;18.424;2024-02-21T11:40:05;96194.00;;;13.39;49.52
84511;BME280;74730;43.858;18.424;2024-02-21T11:42:35;96192.44;;;13.45;47.77
84511;BME280;74730;43.858;18.424;2024-02-21T11:45:01;96187.06;;;13.46;49.11
84511;BME280;74730;43.858;18.424;2024-02-21T11:47:29;96187.00;;;13.40;47.97
84511;BME280;74730;43.858;18.424;2024-02-21T11:49:55;96176.13;;;13.57;49.46
84511;BME280;74730;43.858;18.424;2024-02-21T11:52:22;96172.88;;;13.83;49.10
84511;BME280;74730;43.858;18.424;2024-02-21T11:54:51;96172.75;;;14.04;48.32
84511;BME280;74730;43.858;18.424;2024-02-21T11:57:23;96167.75;;;14.03;49.33
84511;BME280;74730;43.858;18.424;2024-02-21T11:59:49;96167.59;;;14.11;46.57
84511;BME280;74730;43.858;18.424;2024-02-21T12:02:20;96158.13;;;13.90;47.56
84511;BME280;74730;43.858;18.424;2024-02-21T12:04:47;96157.84;;;13.72;47.25
84511;BME280;74730;43.858;18.424;2024-02-21T12:07:17;96151.44;;;13.68;49.09
84511;BME280;74730;43.858;18.424;2024-02-21T12:09:43;96145.44;;;13.61;49.67
84511;BME280;74730;43.858;18.424;2024-02-21T12:12:09;96145.03;;;13.70;47.19
84511;BME280;74730;43.858;18.424;2024-02-21T12:14:35;96145.44;;;13.67;46.28
84511;BME280;74730;43.858;18.424;2024-02-21T12:17:02;96141.88;;;13.75;45.02
84511;BME280;74730;43.858;18.424;2024-02-21T12:19:32;96144.22;;;13.63;46.05
84511;BME280;74730;43.858;18.424;2024-02-21T12:22:01;96143.81;;;13.25;46.47
84511;BME280;74730;43.858;18.424;2024-02-21T12:24:31;96142.31;;;12.61;47.32
84511;BME280;74730;43.858;18.424;2024-02-21T12:26:57;96134.53;;;12.61;48.69
84511;BME280;74730;43.858;18.424;2024-02-21T12:29:24;96138.16;;;12.87;48.87
84511;BME280;74730;43.858;18.424;2024-02-21T12:31:50;96129.34;;;13.10;47.21
84511;BME280;74730;43.858;18.424;2024-02-21T12:34:17;96132.28;;;13.07;46.89
84511;BME280;74730;43.858;18.424;2024-02-21T12:36:43;96125.81;;;13.17;46.46
84511;BME280;74730;43.858;18.424;2024-02-21T12:39:10;96115.75;;;13.36;45.47
84511;BME280;74730;43.858;18.424;2024-02-21T12:41:37;96116.22;;;13.52;43.90
84511;BME280;74730;43.858;18.424;2024-02-21T12:44:09;96117.03;;;13.53;44.40
84511;BME280;74730;43.858;18.424;2024-02-21T12:46:37;96111.59;;;13.41;43.09
84511;BME280;74730;43.858;18.424;2024-02-21T12:49:03;96095.09;;;13.21;43.66
84511;BME280;74730;43.858;18.424;2024-02-21T12:51:29;96095.97;;;13.07;43.97
84511;BME280;74730;43.858;18.424;2024-02-21T12:53:56;96089.63;;;13.09;44.23
84511;BME280;74730;43.858;18.424;2024-02-21T12:56:24;96091.94;;;12.98;45.36
84511;BME280;74730;43.858;18.424;2024-02-21T12:58:53;96087.72;;;12.90;45.89
84511;BME280;74730;43.858;18.424;2024-02-21T13:01:20;96083.91;;;13.14;45.35